Time;durP1;ratioP1;P1;durP2;ratioP2;P2;SDS_P1;SDS_P2;PMS_P1;PMS_P2;Temp;Humidity;BMP_temperature;BMP_pressure;BME280_temperature;BME280_humidity;BME280_pressure;Samples;Min_cycle;Max_cycle;Signal;HPM_P1;HPM_P2
2023/09/18 00:00:35;;;;;;;10.63;9.35;;;;;;;;;;10135294;28;20138;-71
2023/09/18 00:05:31;;;;;;;10.35;9.40;;;;;;;;;;10137036;28;20058;-71
2023/09/18 00:10:28;;;;;;;11.18;9.52;;;;;;;;;;10134108;28;20050;-72
2023/09/18 00:15:25;;;;;;;10.95;9.38;;;;;;;;;;10132373;28;20505;-72
2023/09/18 00:20:26;;;;;;;11.13;9.98;;;;;;;;;;10147407;28;20705;-73
2023/09/18 00:25:23;;;;;;;11.02;9.90;;;;;;;;;;10125445;28;20426;-73
2023/09/18 00:30:19;;;;;;;10.10;9.20;;;;;;;;;;10133614;28;20054;-72
2023/09/18 00:35:16;;;;;;;9.68;8.82;;;;;;;;;;10129611;28;20616;-72
2023/09/18 00:40:12;;;;;;;12.57;9.68;;;;;;;;;;10134759;28;20137;-72
2023/09/18 00:45:09;;;;;;;10.10;9.30;;;;;;;;;;10138232;28;20108;-72
2023/09/18 00:50:07;;;;;;;9.70;8.80;;;;;;;;;;10141848;28;20098;-72
2023/09/18 00:55:06;;;;;;;9.93;9.13;;;;;;;;;;10119499;28;20057;-73
2023/09/18 01:00:05;;;;;;;11.18;10.10;;;;;;;;;;10129419;28;20058;-73
2023/09/18 01:10:52;;;;;;;10.63;9.68;;;;;;;;;;11425534;23;20050;-72
2023/09/18 01:15:54;;;;;;;10.30;9.40;;;;;;;;;;10181200;28;20416;-71
2023/09/18 01:20:50;;;;;;;10.98;9.98;;;;;;;;;;10164802;28;20428;-71
2023/09/18 01:25:46;;;;;;;11.45;10.43;;;;;;;;;;10145862;28;20082;-71
2023/09/18 01:30:44;;;;;;;10.07;9.27;;;;;;;;;;10142474;28;20046;-72
2023/09/18 01:35:41;;;;;;;11.23;9.70;;;;;;;;;;10141869;28;20450;-71
2023/09/18 01:40:38;;;;;;;9.85;8.95;;;;;;;;;;10149166;28;20055;-72
2023/09/18 01:45:35;;;;;;;11.20;10.23;;;;;;;;;;10145251;28;20053;-71
2023/09/18 01:50:31;;;;;;;11.70;10.60;;;;;;;;;;10144893;28;20077;-71
2023/09/18 01:55:29;;;;;;;10.85;9.93;;;;;;;;;;10147063;28;20050;-71
2023/09/18 02:00:25;;;;;;;11.20;10.20;;;;;;;;;;10141116;28;20096;-71
2023/09/18 02:05:22;;;;;;;11.02;10.02;;;;;;;;;;10143931;28;20108;-71
2023/09/18 02:10:18;;;;;;;11.90;10.75;;;;;;;;;;10135745;28;20505;-71
2023/09/18 02:15:16;;;;;;;11.30;10.20;;;;;;;;;;10154993;28;20097;-71
2023/09/18 02:20:13;;;;;;;11.07;10.15;;;;;;;;;;10152384;28;20494;-71
2023/09/18 02:25:09;;;;;;;11.30;10.30;;;;;;;;;;10157423;28;20050;-70
2023/09/18 02:30:06;;;;;;;13.85;11.00;;;;;;;;;;10155790;28;20490;-70
2023/09/18 02:35:04;;;;;;;11.90;10.80;;;;;;;;;;10149066;28;20639;-71
2023/09/18 02:40:00;;;;;;;11.88;10.80;;;;;;;;;;10160416;28;20460;-70
2023/09/18 02:44:56;;;;;;;11.48;10.27;;;;;;;;;;10159867;28;20058;-70
2023/09/18 02:49:53;;;;;;;11.27;10.38;;;;;;;;;;10155286;28;20626;-70
2023/09/18 02:54:49;;;;;;;11.68;10.57;;;;;;;;;;10149931;28;20050;-72
2023/09/18 02:59:46;;;;;;;15.00;10.38;;;;;;;;;;10154674;28;20071;-72
2023/09/18 03:04:42;;;;;;;12.10;11.05;;;;;;;;;;10146044;28;20074;-72
2023/09/18 03:09:38;;;;;;;11.45;10.45;;;;;;;;;;10154991;28;20046;-72
2023/09/18 03:14:34;;;;;;;11.77;10.73;;;;;;;;;;10150159;28;20046;-71
2023/09/18 03:19:31;;;;;;;11.82;10.93;;;;;;;;;;10155212;28;20413;-71
2023/09/18 03:24:27;;;;;;;11.65;10.65;;;;;;;;;;10155228;28;20489;-71
2023/09/18 03:29:24;;;;;;;11.20;10.30;;;;;;;;;;10150004;28;20053;-72
2023/09/18 03:34:20;;;;;;;13.07;11.88;;;;;;;;;;10153048;28;20116;-74
2023/09/18 03:39:16;;;;;;;12.80;11.70;;;;;;;;;;10145042;28;20077;-74
2023/09/18 03:44:13;;;;;;;12.88;11.77;;;;;;;;;;10148289;28;20108;-75
2023/09/18 03:49:09;;;;;;;12.85;11.57;;;;;;;;;;10142937;28;20053;-74
2023/09/18 03:54:05;;;;;;;14.35;13.15;;;;;;;;;;10121878;28;20532;-74
2023/09/18 03:59:02;;;;;;;13.25;12.07;;;;;;;;;;10134359;28;20479;-74
2023/09/18 04:03:58;;;;;;;12.85;11.75;;;;;;;;;;10142711;28;20050;-75
2023/09/18 04:08:55;;;;;;;12.70;11.50;;;;;;;;;;10150517;28;20050;-75
2023/09/18 04:13:51;;;;;;;13.15;11.90;;;;;;;;;;10148152;28;20458;-75
2023/09/18 04:18:48;;;;;;;13.07;12.02;;;;;;;;;;10126687;28;20058;-74
2023/09/18 04:23:46;;;;;;;13.27;12.00;;;;;;;;;;10145420;28;20100;-75
2023/09/18 04:28:42;;;;;;;14.38;13.18;;;;;;;;;;10129354;28;20497;-76
2023/09/18 04:33:38;;;;;;;14.65;13.30;;;;;;;;;;10141635;28;20046;-74
2023/09/18 04:38:35;;;;;;;15.80;14.13;;;;;;;;;;10144395;28;20042;-76
2023/09/18 04:43:31;;;;;;;13.07;12.02;;;;;;;;;;10158142;28;20052;-75
2023/09/18 04:48:28;;;;;;;13.70;12.52;;;;;;;;;;10150738;28;20046;-75
2023/09/18 04:53:24;;;;;;;14.02;12.63;;;;;;;;;;10141415;28;20068;-76
2023/09/18 04:58:21;;;;;;;16.05;14.45;;;;;;;;;;10136614;28;20070;-75
2023/09/18 05:03:18;;;;;;;15.00;13.80;;;;;;;;;;10136802;28;20058;-76
2023/09/18 05:08:15;;;;;;;14.75;13.35;;;;;;;;;;10149608;28;20065;-75
2023/09/18 05:13:11;;;;;;;16.05;14.57;;;;;;;;;;10140013;28;20050;-76
2023/09/18 05:18:08;;;;;;;14.63;13.32;;;;;;;;;;10163049;28;20085;-76
2023/09/18 05:23:04;;;;;;;15.20;13.98;;;;;;;;;;10154791;28;20445;-76
2023/09/18 05:28:01;;;;;;;13.85;12.65;;;;;;;;;;10148125;28;20085;-76
2023/09/18 05:33:04;;;;;;;15.38;14.00;;;;;;;;;;10133573;28;20101;-77
2023/09/18 05:38:01;;;;;;;14.95;13.60;;;;;;;;;;10153685;28;20057;-77
2023/09/18 05:42:57;;;;;;;15.98;14.55;;;;;;;;;;10152525;28;20074;-76
2023/09/18 05:47:53;;;;;;;15.05;13.77;;;;;;;;;;10130601;28;20633;-76
2023/09/18 05:52:53;;;;;;;13.90;12.70;;;;;;;;;;10165552;23;20054;-76
2023/09/18 06:03:58;;;;;;;14.65;13.40;;;;;;;;;;10040226;28;20054;-76
2023/09/18 06:09:12;;;;;;;14.02;12.60;;;;;;;;;;10130851;28;20065;-77
2023/09/18 06:14:17;;;;;;;13.15;11.95;;;;;;;;;;10104605;28;20517;-77
2023/09/18 06:19:26;;;;;;;14.13;12.88;;;;;;;;;;10135935;28;20046;-76
2023/09/18 06:30:47;;;;;;;14.30;12.88;;;;;;;;;;10101617;28;20727;-77
2023/09/18 06:35:51;;;;;;;13.82;12.43;;;;;;;;;;10129713;28;20166;-77
2023/09/18 06:41:34;;;;;;;13.57;12.48;;;;;;;;;;10123277;28;20157;-77
2023/09/18 06:46:52;;;;;;;14.25;12.90;;;;;;;;;;9951850;29;20535;-77
2023/09/18 06:58:35;;;;;;;13.85;12.50;;;;;;;;;;9790442;29;20047;-77
2023/09/18 07:03:40;;;;;;;18.50;14.38;;;;;;;;;;9793850;29;20054;-77
2023/09/18 07:08:53;;;;;;;13.20;11.93;;;;;;;;;;9773938;29;20576;-77
2023/09/18 07:14:09;;;;;;;13.15;12.05;;;;;;;;;;9958361;29;20586;-77
2023/09/18 07:19:23;;;;;;;12.23;11.02;;;;;;;;;;9970997;29;20048;-76
2023/09/18 07:24:40;;;;;;;15.48;14.13;;;;;;;;;;9974014;29;20424;-76
2023/09/18 07:29:57;;;;;;;;;;;;;;;;;;10028444;28;20519;-77
2023/09/18 07:34:59;;;;;;;13.13;11.95;;;;;;;;;;10119449;28;20535;-77
2023/09/18 07:40:04;;;;;;;12.63;11.57;;;;;;;;;;10143736;28;20054;-77
2023/09/18 07:45:52;;;;;;;12.75;11.65;;;;;;;;;;10104813;28;20145;-77
2023/09/18 07:57:10;;;;;;;13.13;11.93;;;;;;;;;;10141614;28;20102;-77
2023/09/18 08:02:07;;;;;;;13.35;12.18;;;;;;;;;;10143028;28;20055;-77
2023/09/18 08:07:06;;;;;;;13.10;12.00;;;;;;;;;;10138825;28;20564;-77
2023/09/18 08:12:03;;;;;;;12.80;11.77;;;;;;;;;;10145007;28;20042;-77
2023/09/18 08:17:00;;;;;;;12.95;11.90;;;;;;;;;;10145336;28;20043;-77
2023/09/18 08:21:57;;;;;;;12.77;11.73;;;;;;;;;;10143919;28;20050;-77
2023/09/18 08:26:54;;;;;;;12.68;11.57;;;;;;;;;;10140541;28;20055;-77
2023/09/18 08:31:50;;;;;;;13.00;11.80;;;;;;;;;;10144831;28;20046;-77
2023/09/18 08:36:47;;;;;;;12.85;11.75;;;;;;;;;;10119373;28;20093;-76
2023/09/18 08:41:45;;;;;;;13.55;12.35;;;;;;;;;;10117054;28;20575;-77
2023/09/18 08:46:43;;;;;;;12.73;11.75;;;;;;;;;;10119594;28;20464;-77
2023/09/18 08:51:42;;;;;;;12.73;11.60;;;;;;;;;;10146164;28;20602;-77
2023/09/18 08:56:38;;;;;;;13.20;12.00;;;;;;;;;;10116400;28;20054;-77
2023/09/18 09:01:34;;;;;;;13.07;11.82;;;;;;;;;;10146894;28;20054;-77
2023/09/18 09:06:31;;;;;;;13.98;12.23;;;;;;;;;;10145185;28;20074;-77
2023/09/18 09:11:27;;;;;;;12.93;11.82;;;;;;;;;;10141353;28;20070;-77
2023/09/18 09:16:24;;;;;;;13.23;11.90;;;;;;;;;;10142679;28;20074;-77
2023/09/18 09:21:20;;;;;;;12.45;11.25;;;;;;;;;;10128160;28;20522;-77
2023/09/18 09:26:17;;;;;;;13.30;12.20;;;;;;;;;;10146763;28;20110;-77
2023/09/18 09:31:24;;;;;;;12.70;11.65;;;;;;;;;;10125721;28;20068;-77
2023/09/18 09:36:21;;;;;;;12.85;11.73;;;;;;;;;;10129295;28;20178;-77
2023/09/18 09:41:17;;;;;;;11.95;10.95;;;;;;;;;;10136210;28;20066;-77
2023/09/18 09:46:18;;;;;;;12.63;11.63;;;;;;;;;;10137205;28;20050;-77
2023/09/18 09:51:17;;;;;;;13.35;12.05;;;;;;;;;;10126572;28;20137;-77
2023/09/18 09:56:14;;;;;;;12.80;11.68;;;;;;;;;;10145669;28;20047;-77
2023/09/18 10:01:12;;;;;;;13.85;12.77;;;;;;;;;;10147147;28;20058;-77
2023/09/18 10:06:13;;;;;;;13.30;12.10;;;;;;;;;;10148157;28;20070;-77
2023/09/18 10:11:12;;;;;;;12.38;11.35;;;;;;;;;;10151568;28;20054;-76
2023/09/18 10:16:10;;;;;;;12.90;11.70;;;;;;;;;;10151474;28;20062;-76
2023/09/18 10:21:14;;;;;;;13.65;12.32;;;;;;;;;;10144981;28;20077;-76
2023/09/18 10:26:13;;;;;;;14.70;13.23;;;;;;;;;;10148231;28;20514;-76
2023/09/18 10:31:11;;;;;;;14.70;11.80;;;;;;;;;;10151387;28;21398;-76
2023/09/18 10:36:08;;;;;;;12.88;11.57;;;;;;;;;;10143733;28;20065;-76
2023/09/18 10:41:05;;;;;;;12.60;11.50;;;;;;;;;;10146114;28;20069;-76
2023/09/18 10:46:01;;;;;;;13.65;12.48;;;;;;;;;;10146031;28;20050;-75
2023/09/18 10:50:58;;;;;;;14.30;13.07;;;;;;;;;;10145841;28;20058;-77
2023/09/18 10:55:56;;;;;;;14.02;12.68;;;;;;;;;;10148765;28;20054;-76
2023/09/18 11:00:54;;;;;;;14.18;12.68;;;;;;;;;;10133091;28;20108;-77
2023/09/18 11:06:02;;;;;;;13.10;11.90;;;;;;;;;;10144017;28;20050;-77
2023/09/18 11:11:09;;;;;;;12.73;11.63;;;;;;;;;;10121188;28;20062;-72
2023/09/18 11:16:24;;;;;;;14.10;12.15;;;;;;;;;;10123544;28;20062;-73
2023/09/18 11:21:25;;;;;;;13.32;11.95;;;;;;;;;;10148454;28;20638;-73
2023/09/18 11:26:21;;;;;;;20.15;12.52;;;;;;;;;;10141213;28;20050;-73
2023/09/18 11:31:20;;;;;;;11.98;10.88;;;;;;;;;;10126347;28;20074;-73
2023/09/18 11:36:30;;;;;;;14.45;11.93;;;;;;;;;;10129345;28;20054;-73
2023/09/18 11:41:28;;;;;;;12.40;11.40;;;;;;;;;;10149744;28;20051;-73
2023/09/18 11:46:25;;;;;;;12.70;11.07;;;;;;;;;;10133458;28;20062;-73
2023/09/18 11:51:22;;;;;;;12.25;11.10;;;;;;;;;;10139935;28;20584;-73
2023/09/18 11:56:19;;;;;;;13.90;10.70;;;;;;;;;;10144554;28;20511;-73
2023/09/18 12:12:49;;;;;;;12.67;11.40;;;;;;;;;;10173019;23;20050;-73
2023/09/18 12:17:47;;;;;;;12.63;11.43;;;;;;;;;;10175400;28;20476;-73
2023/09/18 12:22:47;;;;;;;15.32;10.52;;;;;;;;;;10156004;28;20056;-73
2023/09/18 12:27:44;;;;;;;12.70;10.77;;;;;;;;;;10153559;28;20050;-72
2023/09/18 12:32:41;;;;;;;13.13;11.52;;;;;;;;;;10143401;28;20047;-72
2023/09/18 12:37:41;;;;;;;11.98;10.88;;;;;;;;;;10133273;28;20058;-73
2023/09/18 12:42:40;;;;;;;15.05;11.13;;;;;;;;;;10149296;28;20070;-73
2023/09/18 12:47:39;;;;;;;12.10;10.90;;;;;;;;;;10141882;28;20089;-72
2023/09/18 12:52:36;;;;;;;13.43;10.00;;;;;;;;;;10130028;28;20438;-72
2023/09/18 12:57:32;;;;;;;13.60;12.13;;;;;;;;;;10132424;28;20049;-72
2023/09/18 13:02:29;;;;;;;11.90;10.32;;;;;;;;;;10143021;28;20061;-72
2023/09/18 13:07:27;;;;;;;13.02;10.02;;;;;;;;;;10146012;28;20177;-72
2023/09/18 13:12:23;;;;;;;14.15;10.40;;;;;;;;;;10135228;28;20070;-73
2023/09/18 13:17:20;;;;;;;12.95;9.93;;;;;;;;;;10142481;28;20170;-73
2023/09/18 13:22:25;;;;;;;11.55;9.70;;;;;;;;;;10152348;28;20094;-72
2023/09/18 13:27:23;;;;;;;11.40;9.15;;;;;;;;;;10150958;28;20487;-72
2023/09/18 13:32:20;;;;;;;10.90;9.73;;;;;;;;;;10141716;28;20054;-72
2023/09/18 13:37:18;;;;;;;14.07;9.65;;;;;;;;;;10136989;28;20068;-72
2023/09/18 13:42:14;;;;;;;11.15;10.05;;;;;;;;;;10132191;28;20421;-73
2023/09/18 13:47:13;;;;;;;10.23;9.38;;;;;;;;;;10141403;28;20109;-73
2023/09/18 13:52:09;;;;;;;10.57;9.52;;;;;;;;;;10141168;28;20530;-72
2023/09/18 13:57:06;;;;;;;9.73;8.75;;;;;;;;;;10145848;28;20049;-72
2023/09/18 14:02:04;;;;;;;10.45;8.90;;;;;;;;;;10130489;28;20520;-72
2023/09/18 14:07:02;;;;;;;12.00;9.38;;;;;;;;;;10142516;28;20050;-72
2023/09/18 14:11:58;;;;;;;10.15;9.15;;;;;;;;;;10152631;28;20068;-72
2023/09/18 14:16:55;;;;;;;13.65;9.43;;;;;;;;;;10136505;28;20050;-72
2023/09/18 14:21:54;;;;;;;10.18;9.13;;;;;;;;;;10160151;28;20078;-72
2023/09/18 14:26:51;;;;;;;10.38;9.48;;;;;;;;;;10155558;28;20521;-71
2023/09/18 14:31:48;;;;;;;10.05;9.05;;;;;;;;;;10144277;28;20074;-71
2023/09/18 14:36:44;;;;;;;9.40;8.32;;;;;;;;;;10140720;28;20124;-72
2023/09/18 14:41:45;;;;;;;13.32;8.38;;;;;;;;;;10134477;28;20629;-72
2023/09/18 14:46:43;;;;;;;10.35;9.27;;;;;;;;;;10116618;28;20130;-71
2023/09/18 14:51:40;;;;;;;13.05;9.40;;;;;;;;;;10136156;28;20057;-71
2023/09/18 14:56:37;;;;;;;10.32;9.32;;;;;;;;;;10139418;28;20082;-71
2023/09/18 15:01:33;;;;;;;9.75;8.95;;;;;;;;;;10149005;28;20081;-71
2023/09/18 15:06:30;;;;;;;9.55;8.68;;;;;;;;;;10137951;28;20054;-71
2023/09/18 15:11:27;;;;;;;10.27;8.68;;;;;;;;;;10147282;28;20116;-71
2023/09/18 15:16:23;;;;;;;14.68;8.98;;;;;;;;;;10143638;28;20462;-71
2023/09/18 15:21:20;;;;;;;9.70;8.70;;;;;;;;;;10138146;28;20054;-71
2023/09/18 15:26:17;;;;;;;9.30;8.50;;;;;;;;;;10151424;28;20069;-72
2023/09/18 15:31:13;;;;;;;10.10;9.10;;;;;;;;;;10139483;28;20050;-72
2023/09/18 15:36:10;;;;;;;9.95;9.02;;;;;;;;;;10151603;28;20046;-72
2023/09/18 15:41:07;;;;;;;9.82;9.02;;;;;;;;;;10142355;28;20710;-74
2023/09/18 15:46:04;;;;;;;9.32;8.57;;;;;;;;;;10146801;28;20134;-72
2023/09/18 15:51:00;;;;;;;9.43;8.63;;;;;;;;;;10140315;28;20502;-72
2023/09/18 15:55:56;;;;;;;9.68;8.75;;;;;;;;;;10134069;28;20071;-71
2023/09/18 16:00:54;;;;;;;9.98;8.98;;;;;;;;;;10144818;28;20050;-74
2023/09/18 16:05:53;;;;;;;9.95;8.70;;;;;;;;;;10151747;28;20105;-71
2023/09/18 16:10:50;;;;;;;9.20;8.30;;;;;;;;;;10145310;28;20417;-73
2023/09/18 16:15:46;;;;;;;9.95;8.65;;;;;;;;;;10127675;28;20134;-73
2023/09/18 16:20:42;;;;;;;9.75;8.85;;;;;;;;;;10141005;28;20050;-73
2023/09/18 16:25:39;;;;;;;13.60;8.73;;;;;;;;;;10144148;28;20109;-73
2023/09/18 16:30:35;;;;;;;9.55;8.68;;;;;;;;;;10121271;28;20054;-71
2023/09/18 16:35:31;;;;;;;9.63;8.75;;;;;;;;;;10146912;28;20062;-71
2023/09/18 16:40:29;;;;;;;9.80;8.95;;;;;;;;;;10143403;22;20066;-72
2023/09/18 16:45:29;;;;;;;13.50;8.82;;;;;;;;;;10112032;28;20127;-73
2023/09/18 16:50:26;;;;;;;10.88;9.63;;;;;;;;;;10108548;28;20098;-71
2023/09/18 16:55:22;;;;;;;9.85;9.00;;;;;;;;;;10105616;28;20051;-71
2023/09/18 17:00:40;;;;;;;;;;;;;;;;;;;;;
2023/09/18 17:05:50;;;;;;;9.55;8.85;;;;;;;;;;10158209;28;20093;-71
2023/09/18 17:10:47;;;;;;;9.90;9.10;;;;;;;;;;10173051;28;20051;-73
2023/09/18 17:15:44;;;;;;;9.90;9.00;;;;;;;;;;10139149;28;20147;-71
2023/09/18 17:20:40;;;;;;;10.30;9.40;;;;;;;;;;10152663;28;20053;-71
2023/09/18 17:25:36;;;;;;;10.43;9.52;;;;;;;;;;10150144;28;20570;-71
2023/09/18 17:30:33;;;;;;;9.48;8.68;;;;;;;;;;10173056;23;20056;-73
2023/09/18 17:35:29;;;;;;;9.20;8.40;;;;;;;;;;10184248;28;20053;-73
2023/09/18 17:40:26;;;;;;;10.50;8.50;;;;;;;;;;10179264;28;20050;-71
2023/09/18 17:45:22;;;;;;;9.80;8.55;;;;;;;;;;10133673;28;20082;-71
2023/09/18 17:50:19;;;;;;;9.40;8.57;;;;;;;;;;10130216;28;20050;-71
2023/09/18 17:55:16;;;;;;;11.82;8.90;;;;;;;;;;10150737;28;20678;-73
2023/09/18 18:00:15;;;;;;;9.20;8.30;;;;;;;;;;10152993;28;20467;-71
2023/09/18 18:05:12;;;;;;;8.32;7.63;;;;;;;;;;10153614;28;20064;-71
2023/09/18 18:10:09;;;;;;;9.38;8.43;;;;;;;;;;10145317;28;20056;-71
2023/09/18 18:15:06;;;;;;;8.82;8.02;;;;;;;;;;10152812;28;20066;-73
2023/09/18 18:20:05;;;;;;;9.07;8.18;;;;;;;;;;10134096;28;20642;-72
2023/09/18 18:25:02;;;;;;;7.90;7.20;;;;;;;;;;10153272;28;20042;-72
2023/09/18 18:29:58;;;;;;;8.35;7.55;;;;;;;;;;10148482;28;20050;-74
2023/09/18 18:34:55;;;;;;;8.57;7.28;;;;;;;;;;10154007;28;20085;-76
2023/09/18 18:39:52;;;;;;;8.35;7.65;;;;;;;;;;10143059;28;21846;-75
2023/09/18 18:44:48;;;;;;;8.45;7.45;;;;;;;;;;10149132;28;20097;-75
2023/09/18 18:49:44;;;;;;;7.97;7.22;;;;;;;;;;10161275;28;20070;-75
2023/09/18 18:54:41;;;;;;;11.32;7.50;;;;;;;;;;10142306;28;20046;-75
2023/09/18 18:59:39;;;;;;;8.02;7.32;;;;;;;;;;10162109;28;20043;-76
2023/09/18 19:04:36;;;;;;;10.02;8.18;;;;;;;;;;10149920;28;20042;-76
2023/09/18 19:09:32;;;;;;;9.18;7.97;;;;;;;;;;10148680;28;20054;-75
2023/09/18 19:14:29;;;;;;;8.82;7.95;;;;;;;;;;10152708;28;20046;-75
2023/09/18 19:19:25;;;;;;;7.80;7.20;;;;;;;;;;10154275;28;20070;-76
2023/09/18 19:24:21;;;;;;;8.07;7.38;;;;;;;;;;10149380;28;20051;-75
2023/09/18 19:29:18;;;;;;;8.68;7.55;;;;;;;;;;10142894;28;20050;-76
2023/09/18 19:34:15;;;;;;;13.52;7.88;;;;;;;;;;10135653;28;20146;-76
2023/09/18 19:39:12;;;;;;;8.40;7.60;;;;;;;;;;10135070;28;20137;-76
2023/09/18 19:44:08;;;;;;;8.50;7.70;;;;;;;;;;10146349;28;20045;-75
2023/09/18 19:49:05;;;;;;;8.45;7.75;;;;;;;;;;10142398;28;20054;-76
2023/09/18 19:54:01;;;;;;;10.10;8.55;;;;;;;;;;10151411;28;20069;-76
2023/09/18 19:58:58;;;;;;;8.68;7.97;;;;;;;;;;10148469;28;20049;-76
2023/09/18 20:03:54;;;;;;;7.88;6.97;;;;;;;;;;10112943;28;20145;-75
2023/09/18 20:08:51;;;;;;;7.88;7.28;;;;;;;;;;10154488;28;20058;-73
2023/09/18 20:13:47;;;;;;;9.10;7.60;;;;;;;;;;10137000;22;20935;-73
2023/09/18 20:18:44;;;;;;;7.78;7.07;;;;;;;;;;10106185;28;20067;-73
2023/09/18 20:23:41;;;;;;;7.60;6.88;;;;;;;;;;10095908;28;20047;-74
2023/09/18 20:28:38;;;;;;;8.68;6.78;;;;;;;;;;10104399;28;20059;-73
2023/09/18 20:33:35;;;;;;;7.20;5.35;;;;;;;;;;10096117;28;20063;-73
2023/09/18 20:38:31;;;;;;;6.78;6.07;;;;;;;;;;10105038;28;20105;-72
2023/09/18 20:43:29;;;;;;;6.40;5.43;;;;;;;;;;10086942;28;20043;-72
2023/09/18 20:48:25;;;;;;;5.85;5.45;;;;;;;;;;10094279;28;20073;-73
2023/09/18 20:53:22;;;;;;;5.20;4.70;;;;;;;;;;10073737;28;20058;-73
2023/09/18 20:58:18;;;;;;;6.40;5.80;;;;;;;;;;10091183;28;20121;-76
2023/09/18 21:03:15;;;;;;;6.03;4.57;;;;;;;;;;10089872;28;20082;-75
2023/09/18 21:08:13;;;;;;;5.50;5.00;;;;;;;;;;10092703;28;20079;-76
2023/09/18 21:13:09;;;;;;;5.20;4.70;;;;;;;;;;10099888;28;20066;-73
2023/09/18 21:18:06;;;;;;;5.68;5.18;;;;;;;;;;10101213;28;20090;-73
2023/09/18 21:23:03;;;;;;;5.85;4.90;;;;;;;;;;10113109;28;20550;-73
2023/09/18 21:28:01;;;;;;;6.20;5.57;;;;;;;;;;10111610;28;20051;-73
2023/09/18 21:32:57;;;;;;;7.32;6.78;;;;;;;;;;10105716;28;20040;-73
2023/09/18 21:37:55;;;;;;;7.22;6.63;;;;;;;;;;10114780;28;20096;-73
2023/09/18 21:42:52;;;;;;;8.73;7.22;;;;;;;;;;10111213;28;20101;-73
2023/09/18 21:47:50;;;;;;;7.68;6.97;;;;;;;;;;10099393;28;20046;-73
2023/09/18 21:52:47;;;;;;;7.35;6.75;;;;;;;;;;10099258;28;20047;-74
2023/09/18 21:57:43;;;;;;;6.32;5.82;;;;;;;;;;10105210;28;20046;-73
2023/09/18 22:02:40;;;;;;;6.35;5.85;;;;;;;;;;10097124;28;20063;-74
2023/09/18 22:07:36;;;;;;;6.85;6.07;;;;;;;;;;10108940;28;20142;-74
2023/09/18 22:12:32;;;;;;;7.22;6.55;;;;;;;;;;10106135;28;20054;-73
2023/09/18 22:17:29;;;;;;;7.07;6.57;;;;;;;;;;10103663;28;20089;-73
2023/09/18 22:22:29;;;;;;;6.80;6.30;;;;;;;;;;10113137;28;20057;-74
2023/09/18 22:27:25;;;;;;;6.78;6.28;;;;;;;;;;10094555;28;20074;-74
2023/09/18 22:32:23;;;;;;;6.70;6.20;;;;;;;;;;10107003;28;20042;-73
2023/09/18 22:37:19;;;;;;;5.95;5.53;;;;;;;;;;10103086;28;20047;-73
2023/09/18 22:42:15;;;;;;;6.70;6.00;;;;;;;;;;10101655;28;20106;-73
2023/09/18 22:47:31;;;;;;;6.10;5.60;;;;;;;;;;10099111;28;20062;-73
2023/09/18 22:52:37;;;;;;;5.32;4.82;;;;;;;;;;10083902;28;20569;-73
2023/09/18 22:57:47;;;;;;;6.70;5.25;;;;;;;;;;10106192;28;20058;-73
2023/09/18 23:02:44;;;;;;;5.63;5.13;;;;;;;;;;10107341;28;20537;-73
2023/09/18 23:07:43;;;;;;;8.80;5.05;;;;;;;;;;10108207;28;20203;-73
2023/09/18 23:12:42;;;;;;;5.82;4.97;;;;;;;;;;10108214;28;20461;-73
2023/09/18 23:17:41;;;;;;;5.25;4.78;;;;;;;;;;10088398;28;20058;-73
2023/09/18 23:22:40;;;;;;;5.32;4.93;;;;;;;;;;10108049;28;20400;-73
2023/09/18 23:27:44;;;;;;;6.38;5.18;;;;;;;;;;10105718;28;20141;-74
2023/09/18 23:32:43;;;;;;;9.65;5.10;;;;;;;;;;10103732;28;20074;-74
2023/09/18 23:37:40;;;;;;;8.15;5.07;;;;;;;;;;10096191;28;20100;-73
2023/09/18 23:42:40;;;;;;;7.55;5.80;;;;;;;;;;10108132;28;20059;-74
2023/09/18 23:47:37;;;;;;;5.75;5.25;;;;;;;;;;10105803;28;20102;-74
2023/09/18 23:52:33;;;;;;;8.30;4.72;;;;;;;;;;10108392;28;20510;-74
2023/09/18 23:57:32;;;;;;;6.28;5.65;;;;;;;;;;10089493;28;20052;-74
